createdAt,value
2022-08-24T00:02:00.982Z,60.25
2022-08-24T00:04:32.018Z,60.06
2022-08-24T00:07:01.895Z,60.17
2022-08-24T00:09:31.785Z,60.19
2022-08-24T00:12:00.421Z,60.00
2022-08-24T00:14:28.847Z,60.24
2022-08-24T00:16:57.564Z,60.34
2022-08-24T00:19:26.424Z,60.22
2022-08-24T00:21:55.203Z,60.34
2022-08-24T00:24:23.830Z,60.22
2022-08-24T00:26:53.459Z,60.35
2022-08-24T00:29:23.197Z,60.32
2022-08-24T00:31:51.748Z,60.32
2022-08-24T00:34:20.210Z,60.55
2022-08-24T00:36:48.641Z,60.37
2022-08-24T00:39:17.835Z,60.33
2022-08-24T00:41:48.603Z,60.40
2022-08-24T00:44:18.518Z,60.48
2022-08-24T00:46:53.067Z,60.42
2022-08-24T00:49:24.968Z,60.53
2022-08-24T00:52:00.827Z,60.38
2022-08-24T00:54:38.679Z,60.51
2022-08-24T00:57:11.992Z,60.55
2022-08-24T00:59:45.030Z,60.65
2022-08-24T01:02:17.458Z,60.44
2022-08-24T01:04:51.982Z,60.47
2022-08-24T01:07:22.538Z,60.57
2022-08-24T01:09:51.568Z,60.58
2022-08-24T01:12:21.044Z,60.50
2022-08-24T01:14:49.899Z,60.41
2022-08-24T01:17:38.941Z,60.51
2022-08-24T01:20:11.405Z,60.73
2022-08-24T01:22:54.819Z,60.85
2022-08-24T01:25:26.333Z,60.57
2022-08-24T01:27:59.063Z,60.82
2022-08-24T01:30:29.335Z,60.72
2022-08-24T01:33:07.717Z,60.72
2022-08-24T01:35:38.390Z,60.86
2022-08-24T01:38:11.710Z,60.97
2022-08-24T01:40:45.672Z,61.06
2022-08-24T01:43:14.921Z,60.92
2022-08-24T01:45:44.510Z,61.06
2022-08-24T01:48:14.799Z,61.22
2022-08-24T01:50:49.276Z,61.21
2022-08-24T01:53:19.501Z,61.33
2022-08-24T01:55:48.238Z,61.16
2022-08-24T01:58:16.691Z,61.39
2022-08-24T02:00:45.662Z,61.36
2022-08-24T02:03:15.634Z,61.44
2022-08-24T02:05:44.998Z,61.22
2022-08-24T02:08:16.229Z,61.38
2022-08-24T02:10:52.989Z,61.22
2022-08-24T02:13:26.526Z,61.34
2022-08-24T02:15:55.541Z,61.31
2022-08-24T02:18:24.133Z,61.33
2022-08-24T02:20:53.135Z,61.16
2022-08-24T02:23:22.620Z,60.99
2022-08-24T02:25:51.589Z,61.02
2022-08-24T02:28:20.212Z,60.95
2022-08-24T02:30:49.293Z,61.09
2022-08-24T02:33:17.968Z,61.23
2022-08-24T02:35:46.865Z,61.44
2022-08-24T02:38:16.017Z,61.44
2022-08-24T02:40:44.856Z,61.43
2022-08-24T02:43:13.279Z,61.41
2022-08-24T02:45:48.196Z,61.53
2022-08-24T02:48:20.023Z,61.81
2022-08-24T02:50:50.809Z,61.80
2022-08-24T02:53:21.388Z,61.74
2022-08-24T02:55:52.451Z,61.93
2022-08-24T02:58:20.939Z,61.95
2022-08-24T03:00:49.987Z,62.02
2022-08-24T03:03:19.704Z,61.97
2022-08-24T03:05:48.225Z,62.12
2022-08-24T03:08:17.948Z,62.07
2022-08-24T03:10:46.948Z,62.01
2022-08-24T03:13:16.338Z,61.94
2022-08-24T03:15:45.859Z,61.97
2022-08-24T03:18:14.543Z,62.23
2022-08-24T03:20:44.022Z,62.26
2022-08-24T03:23:13.422Z,62.29
2022-08-24T03:25:41.920Z,62.42
2022-08-24T03:28:11.322Z,62.19
2022-08-24T03:30:43.365Z,62.36
2022-08-24T03:33:16.690Z,62.31
2022-08-24T03:35:45.752Z,62.16
2022-08-24T03:38:14.750Z,62.26
2022-08-24T03:40:43.209Z,62.25
2022-08-24T03:43:31.830Z,62.26
2022-08-24T03:46:02.505Z,62.37
2022-08-24T03:48:31.274Z,62.38
2022-08-24T03:51:00.035Z,62.52
2022-08-24T03:53:28.483Z,62.57
2022-08-24T03:55:57.059Z,62.72
2022-08-24T03:58:25.507Z,62.70
2022-08-24T04:00:57.900Z,62.97
2022-08-24T04:03:27.654Z,62.87
2022-08-24T04:06:01.240Z,62.74
2022-08-24T04:08:30.367Z,62.85
2022-08-24T04:10:59.271Z,62.96
2022-08-24T04:13:31.429Z,63.27
2022-08-24T04:16:06.411Z,63.09
2022-08-24T04:18:35.522Z,63.05
2022-08-24T04:21:04.836Z,63.09
2022-08-24T04:23:46.520Z,62.82
2022-08-24T04:26:24.335Z,62.91
2022-08-24T04:29:08.833Z,62.71
2022-08-24T04:31:40.101Z,62.75
2022-08-24T04:34:09.595Z,62.66
2022-08-24T04:36:40.620Z,62.86
2022-08-24T04:39:09.137Z,62.57
2022-08-24T04:41:43.518Z,62.73
2022-08-24T04:44:13.076Z,62.80
2022-08-24T04:46:41.495Z,62.72
2022-08-24T04:49:10.570Z,62.89
2022-08-24T04:51:39.114Z,62.98
2022-08-24T04:54:08.786Z,62.96
2022-08-24T04:56:37.213Z,62.80
2022-08-24T04:59:06.531Z,62.77
2022-08-24T05:01:35.963Z,62.95
2022-08-24T05:04:05.809Z,63.03
2022-08-24T05:06:34.476Z,62.90
2022-08-24T05:09:09.375Z,62.68
2022-08-24T05:11:40.097Z,63.04
2022-08-24T05:14:09.696Z,62.92
2022-08-24T05:16:45.857Z,62.93
2022-08-24T05:19:23.100Z,63.02
2022-08-24T05:21:51.977Z,63.30
2022-08-24T05:24:21.283Z,63.41
2022-08-24T05:26:52.544Z,63.28
2022-08-24T05:29:22.820Z,63.44
2022-08-24T05:31:52.938Z,63.40
2022-08-24T05:34:23.767Z,63.10
2022-08-24T05:36:52.589Z,63.38
2022-08-24T05:39:49.974Z,63.29
2022-08-24T05:42:18.322Z,63.22
2022-08-24T05:44:49.434Z,62.89
2022-08-24T05:47:20.824Z,62.60
2022-08-24T05:49:52.427Z,62.47
2022-08-24T05:52:21.853Z,62.35
2022-08-24T05:54:53.412Z,61.99
2022-08-24T05:57:24.313Z,61.46
2022-08-24T06:00:07.635Z,61.15
2022-08-24T06:02:44.419Z,61.29
2022-08-24T06:05:13.912Z,61.30
2022-08-24T06:07:43.465Z,61.19
2022-08-24T06:10:35.347Z,61.09
2022-08-24T06:13:03.058Z,60.95
2022-08-24T06:15:32.437Z,60.51
2022-08-24T06:18:01.252Z,60.47
2022-08-24T06:20:30.643Z,60.79
2022-08-24T06:22:59.182Z,60.92
2022-08-24T06:25:53.485Z,60.73
2022-08-24T06:28:23.574Z,60.43
2022-08-24T06:31:01.093Z,60.76
2022-08-24T06:33:31.349Z,60.75
2022-08-24T06:36:00.816Z,59.98
2022-08-24T06:38:31.956Z,59.49
2022-08-24T06:41:01.135Z,58.95
2022-08-24T06:43:30.459Z,58.81
2022-08-24T06:46:03.470Z,58.89
2022-08-24T06:48:38.629Z,58.66
2022-08-24T06:51:12.541Z,58.22
2022-08-24T06:53:42.935Z,57.73
2022-08-24T06:56:13.731Z,57.43
2022-08-24T06:58:45.879Z,57.40
2022-08-24T07:01:20.544Z,57.18
2022-08-24T07:03:49.902Z,56.96
2022-08-24T07:06:42.118Z,56.94
2022-08-24T07:09:11.655Z,57.16
2022-08-24T07:11:41.811Z,57.01
2022-08-24T07:14:11.588Z,56.52
2022-08-24T07:16:40.852Z,56.38
2022-08-24T07:19:10.364Z,56.50
2022-08-24T07:21:38.936Z,56.32
2022-08-24T07:24:08.043Z,55.86
2022-08-24T07:26:38.948Z,55.52
2022-08-24T07:29:43.754Z,55.43
2022-08-24T07:32:02.911Z,55.46
2022-08-24T07:34:39.312Z,55.21
2022-08-24T07:37:08.996Z,55.05
2022-08-24T07:39:40.517Z,55.12
2022-08-24T07:42:18.869Z,55.09
2022-08-24T07:44:51.150Z,55.21
2022-08-24T07:47:37.704Z,55.79
2022-08-24T07:50:20.118Z,56.08
2022-08-24T07:52:48.764Z,55.70
2022-08-24T07:55:17.695Z,55.60
2022-08-24T07:57:47.388Z,55.36
2022-08-24T08:00:19.475Z,55.19
2022-08-24T08:02:49.802Z,55.24
2022-08-24T08:05:21.989Z,54.84
2022-08-24T08:07:54.228Z,54.55
2022-08-24T08:10:23.468Z,54.21
2022-08-24T08:12:53.355Z,54.18
2022-08-24T08:15:22.035Z,54.06
2022-08-24T08:18:02.461Z,53.98
2022-08-24T08:20:32.517Z,53.63
2022-08-24T08:23:20.405Z,53.77
2022-08-24T08:26:12.986Z,53.44
2022-08-24T08:29:02.801Z,53.51
2022-08-24T08:31:34.342Z,53.55
2022-08-24T08:34:05.401Z,53.48
2022-08-24T08:36:35.574Z,53.20
2022-08-24T08:39:05.237Z,52.75
2022-08-24T08:42:14.711Z,52.40
2022-08-24T08:45:00.653Z,52.00
2022-08-24T08:50:57.287Z,51.44
2022-08-24T08:53:55.615Z,51.56
2022-08-24T08:56:35.171Z,52.02
2022-08-24T08:59:14.080Z,52.25
2022-08-24T09:02:01.251Z,52.18
2022-08-24T09:05:27.078Z,51.74
2022-08-24T09:08:02.991Z,50.83
2022-08-24T09:10:44.074Z,50.23
2022-08-24T09:13:40.814Z,49.96
2022-08-24T09:16:37.689Z,49.79
2022-08-24T09:19:33.995Z,50.01
2022-08-24T09:22:11.340Z,49.71
2022-08-24T09:25:02.161Z,50.07
2022-08-24T09:28:00.735Z,49.65
2022-08-24T09:30:57.140Z,49.55
2022-08-24T09:33:35.995Z,49.75
2022-08-24T09:36:12.897Z,49.74
2022-08-24T09:39:05.151Z,49.55
2022-08-24T09:42:15.111Z,49.80
2022-08-24T09:45:12.202Z,49.81
2022-08-24T09:48:07.645Z,49.74
2022-08-24T09:51:22.603Z,49.49
2022-08-24T09:54:13.810Z,49.36
2022-08-24T09:56:56.600Z,49.23
2022-08-24T09:59:52.203Z,49.16
2022-08-24T10:02:40.294Z,49.29
2022-08-24T10:05:22.282Z,49.21
2022-08-24T10:07:58.529Z,49.38
2022-08-24T10:10:35.817Z,49.18
2022-08-24T10:13:19.984Z,49.17
2022-08-24T10:16:06.834Z,49.39
2022-08-24T10:18:47.266Z,49.28
2022-08-24T10:21:38.026Z,49.28
2022-08-24T10:24:46.515Z,49.27
2022-08-24T10:27:27.050Z,49.04
2022-08-24T10:30:14.276Z,49.05
2022-08-24T10:32:57.205Z,49.02
2022-08-24T10:35:33.233Z,49.09
2022-08-24T10:38:47.275Z,48.91
2022-08-24T10:42:06.094Z,48.54
2022-08-24T10:44:49.496Z,48.28
2022-08-24T10:47:26.299Z,48.20
2022-08-24T10:50:31.153Z,47.96
2022-08-24T10:53:28.251Z,47.99
2022-08-24T10:56:11.301Z,47.45
2022-08-24T10:59:02.341Z,47.44
2022-08-24T11:01:34.060Z,47.26
2022-08-24T11:04:08.219Z,47.28
2022-08-24T11:06:39.122Z,46.91
2022-08-24T11:09:12.991Z,47.23
2022-08-24T11:11:46.449Z,47.25
2022-08-24T11:14:26.935Z,47.30
2022-08-24T11:17:15.695Z,47.50
2022-08-24T11:19:44.830Z,47.50
2022-08-24T11:22:38.977Z,47.52
2022-08-24T11:25:16.234Z,47.58
2022-08-24T11:27:48.014Z,47.61
2022-08-24T11:30:25.466Z,47.74
2022-08-24T11:32:56.699Z,48.09
2022-08-24T11:35:34.738Z,48.19
2022-08-24T11:38:09.067Z,47.89
2022-08-24T11:40:42.144Z,47.90
2022-08-24T11:43:27.805Z,48.15
2022-08-24T11:46:11.304Z,48.24
2022-08-24T11:48:53.566Z,47.97
2022-08-24T11:51:35.690Z,48.22
2022-08-24T11:54:18.804Z,48.65
2022-08-24T11:56:57.958Z,48.67
2022-08-24T11:59:39.331Z,49.04
2022-08-24T12:02:16.431Z,49.10
2022-08-24T12:04:53.863Z,49.21
2022-08-24T12:07:39.590Z,49.45
2022-08-24T12:10:32.817Z,49.25
2022-08-24T12:13:10.076Z,49.34
2022-08-24T12:15:48.662Z,49.31
2022-08-24T12:18:28.009Z,49.62
2022-08-24T12:20:57.820Z,49.76
2022-08-24T12:23:33.384Z,49.69
2022-08-24T12:26:08.463Z,49.76
2022-08-24T12:28:40.298Z,49.68
2022-08-24T12:31:15.860Z,49.26
2022-08-24T12:33:52.835Z,49.17
2022-08-24T12:36:29.318Z,49.18
2022-08-24T12:39:09.644Z,49.34
2022-08-24T12:41:48.350Z,49.35
2022-08-24T12:44:50.626Z,49.47
2022-08-24T12:47:25.913Z,49.62
2022-08-24T12:50:01.376Z,49.61
2022-08-24T12:53:09.028Z,49.73
2022-08-24T12:55:56.783Z,49.57
2022-08-24T12:58:54.444Z,49.47
2022-08-24T13:01:27.786Z,49.75
2022-08-24T13:04:10.463Z,49.74
2022-08-24T13:06:43.561Z,49.65
2022-08-24T13:09:26.070Z,49.64
2022-08-24T13:11:56.256Z,49.39
2022-08-24T13:14:26.977Z,49.50
2022-08-24T13:17:13.608Z,49.46
2022-08-24T13:19:45.466Z,49.34
2022-08-24T13:22:48.962Z,49.47
2022-08-24T13:25:51.346Z,49.43
2022-08-24T13:28:38.183Z,49.35
2022-08-24T13:31:31.779Z,49.49
2022-08-24T13:34:38.351Z,49.41
2022-08-24T13:37:16.396Z,49.27
2022-08-24T13:40:05.163Z,48.89
2022-08-24T13:43:07.625Z,48.56
2022-08-24T13:45:42.644Z,48.43
2022-08-24T13:48:23.975Z,48.49
2022-08-24T13:51:19.899Z,48.58
2022-08-24T13:54:19.911Z,48.39
2022-08-24T13:57:22.850Z,48.39
2022-08-24T14:00:17.803Z,47.96
2022-08-24T14:03:01.007Z,47.78
2022-08-24T14:05:37.775Z,47.58
2022-08-24T14:08:22.865Z,47.69
2022-08-24T14:11:03.032Z,47.38
2022-08-24T14:13:47.324Z,47.27
2022-08-24T14:16:57.236Z,47.23
2022-08-24T14:19:34.934Z,46.90
2022-08-24T14:22:19.261Z,46.60
2022-08-24T14:24:57.130Z,46.50
2022-08-24T14:27:44.884Z,46.49
2022-08-24T14:30:54.259Z,46.58
2022-08-24T14:33:30.481Z,46.29
2022-08-24T14:36:17.524Z,46.60
2022-08-24T14:39:05.483Z,46.43
2022-08-24T14:42:04.213Z,46.28
2022-08-24T14:44:56.195Z,45.96
2022-08-24T14:47:41.390Z,45.88
2022-08-24T14:50:17.635Z,45.76
2022-08-24T14:53:01.536Z,45.85
2022-08-24T14:55:36.810Z,45.80
2022-08-24T14:58:28.977Z,45.65
2022-08-24T15:01:41.211Z,45.57
2022-08-24T15:04:40.203Z,45.37
2022-08-24T15:07:33.818Z,45.24
2022-08-24T15:10:11.365Z,45.40
2022-08-24T15:12:44.767Z,45.27
2022-08-24T15:15:21.822Z,45.36
2022-08-24T15:18:00.128Z,45.16
2022-08-24T15:20:44.897Z,45.11
2022-08-24T15:23:24.028Z,44.95
2022-08-24T15:25:56.588Z,45.15
2022-08-24T15:28:28.979Z,44.93
2022-08-24T15:31:02.306Z,44.98
2022-08-24T15:33:31.914Z,45.02
2022-08-24T15:36:10.747Z,44.86
2022-08-24T15:38:41.695Z,44.86
2022-08-24T15:41:14.163Z,44.87
2022-08-24T15:43:46.705Z,44.94
2022-08-24T15:46:21.146Z,44.91
2022-08-24T15:48:50.789Z,44.96
2022-08-24T15:51:39.986Z,44.91
2022-08-24T15:54:29.482Z,45.27
2022-08-24T15:57:00.377Z,45.33
2022-08-24T15:59:31.188Z,45.26
2022-08-24T16:02:37.369Z,45.22
2022-08-24T16:05:20.877Z,45.29
2022-08-24T16:08:08.792Z,45.11
2022-08-24T16:10:40.882Z,45.04
2022-08-24T16:13:18.878Z,44.97
2022-08-24T16:15:49.961Z,44.90
2022-08-24T16:18:20.104Z,44.95
2022-08-24T16:20:50.389Z,44.94
2022-08-24T16:23:26.179Z,44.89
2022-08-24T16:26:23.494Z,44.87
2022-08-24T16:28:54.695Z,44.93
2022-08-24T16:31:50.606Z,44.90
2022-08-24T16:34:23.702Z,44.98
2022-08-24T16:36:52.645Z,44.99
2022-08-24T16:39:21.760Z,44.94
2022-08-24T16:41:52.048Z,44.96
2022-08-24T16:44:21.103Z,45.18
2022-08-24T16:46:55.129Z,45.10
2022-08-24T16:49:24.407Z,45.28
2022-08-24T16:51:52.856Z,45.05
2022-08-24T16:54:25.269Z,44.97
2022-08-24T16:56:53.970Z,45.16
2022-08-24T16:59:28.270Z,45.16
2022-08-24T17:01:57.289Z,45.04
2022-08-24T17:04:25.936Z,45.06
2022-08-24T17:06:55.420Z,45.37
2022-08-24T17:09:24.616Z,45.26
2022-08-24T17:11:53.073Z,45.38
2022-08-24T17:14:21.578Z,45.53
2022-08-24T17:16:50.668Z,45.42
2022-08-24T17:19:21.149Z,45.48
2022-08-24T17:21:49.756Z,45.49
2022-08-24T17:24:21.906Z,45.50
2022-08-24T17:26:51.672Z,45.79
2022-08-24T17:29:21.698Z,45.56
2022-08-24T17:31:51.110Z,45.75
2022-08-24T17:34:21.788Z,45.78
2022-08-24T17:36:53.890Z,45.95
2022-08-24T17:39:24.198Z,45.99
2022-08-24T17:41:53.914Z,46.29
2022-08-24T17:44:26.131Z,46.36
2022-08-24T17:47:01.539Z,46.54
2022-08-24T17:49:31.282Z,46.58
2022-08-24T17:52:00.099Z,46.72
2022-08-24T17:54:29.263Z,46.50
2022-08-24T17:56:57.890Z,46.83
2022-08-24T17:59:30.128Z,46.99
2022-08-24T18:02:01.206Z,46.86
2022-08-24T18:04:32.174Z,46.89
2022-08-24T18:07:04.154Z,47.24
2022-08-24T18:09:35.361Z,47.23
2022-08-24T18:12:08.088Z,47.53
2022-08-24T18:14:36.938Z,47.72
2022-08-24T18:17:09.123Z,47.84
2022-08-24T18:19:38.802Z,48.17
2022-08-24T18:22:07.712Z,48.18
2022-08-24T18:24:36.432Z,48.33
2022-08-24T18:27:10.245Z,48.54
2022-08-24T18:29:41.456Z,48.91
2022-08-24T18:32:12.851Z,49.21
2022-08-24T18:34:48.292Z,49.22
2022-08-24T18:37:19.130Z,49.41
2022-08-24T18:39:50.063Z,49.64
2022-08-24T18:42:19.051Z,49.79
2022-08-24T18:44:48.078Z,49.93
2022-08-24T18:47:16.735Z,50.01
2022-08-24T18:49:45.800Z,50.34
2022-08-24T18:52:16.421Z,50.25
2022-08-24T18:54:47.026Z,50.29
2022-08-24T18:57:16.940Z,50.43
2022-08-24T18:59:47.114Z,50.45
2022-08-24T19:02:33.281Z,50.60
2022-08-24T19:05:06.450Z,50.64
2022-08-24T19:07:39.544Z,50.72
2022-08-24T19:10:12.886Z,50.73
2022-08-24T19:12:46.865Z,50.98
2022-08-24T19:15:34.613Z,50.96
2022-08-24T19:18:06.136Z,51.11
2022-08-24T19:20:35.150Z,51.23
2022-08-24T19:23:10.789Z,51.15
2022-08-24T19:25:42.588Z,51.43
2022-08-24T19:28:11.884Z,51.24
2022-08-24T19:30:41.596Z,51.46
2022-08-24T19:33:14.261Z,51.47
2022-08-24T19:35:43.262Z,51.43
2022-08-24T19:38:11.775Z,51.25
2022-08-24T19:40:47.640Z,51.37
2022-08-24T19:43:16.935Z,51.69
2022-08-24T19:46:04.729Z,51.84
2022-08-24T19:48:36.483Z,52.47
2022-08-24T19:51:07.685Z,52.92
2022-08-24T19:53:38.019Z,53.15
2022-08-24T19:56:07.473Z,53.27
2022-08-24T19:58:44.441Z,53.49
2022-08-24T20:01:17.498Z,53.57
2022-08-24T20:03:46.274Z,53.75
2022-08-24T20:06:16.863Z,54.01
2022-08-24T20:08:48.352Z,54.06
2022-08-24T20:11:17.552Z,54.10
2022-08-24T20:13:46.852Z,54.44
2022-08-24T20:16:20.674Z,54.64
2022-08-24T20:18:49.615Z,54.79
2022-08-24T20:21:18.323Z,55.02
2022-08-24T20:23:47.003Z,55.15
2022-08-24T20:26:15.931Z,55.42
2022-08-24T20:28:48.149Z,55.56
2022-08-24T20:31:18.632Z,55.77
2022-08-24T20:33:47.639Z,56.03
2022-08-24T20:36:22.868Z,56.21
2022-08-24T20:38:52.761Z,56.31
2022-08-24T20:41:21.599Z,56.56
2022-08-24T20:43:50.332Z,56.80
2022-08-24T20:46:19.667Z,57.03
2022-08-24T20:48:55.696Z,57.19
2022-08-24T20:51:25.520Z,57.44
2022-08-24T20:53:54.401Z,57.53
2022-08-24T20:56:30.780Z,57.71
2022-08-24T20:59:02.105Z,57.75
2022-08-24T21:01:31.076Z,57.79
2022-08-24T21:04:04.801Z,58.09
2022-08-24T21:06:35.718Z,58.30
2022-08-24T21:09:06.056Z,58.36
2022-08-24T21:11:38.435Z,58.50
2022-08-24T21:14:07.907Z,58.63
2022-08-24T21:16:39.198Z,58.45
2022-08-24T21:19:09.123Z,58.68
2022-08-24T21:21:42.225Z,58.79
2022-08-24T21:24:11.588Z,58.89
2022-08-24T21:26:40.426Z,58.84
2022-08-24T21:29:10.326Z,59.10
2022-08-24T21:31:39.051Z,59.26
2022-08-24T21:34:26.678Z,59.26
2022-08-24T21:36:56.460Z,59.48
2022-08-24T21:39:25.723Z,59.67
2022-08-24T21:41:54.586Z,59.62
2022-08-24T21:44:23.632Z,59.82
2022-08-24T21:46:52.729Z,59.82
2022-08-24T21:49:21.450Z,59.67
2022-08-24T21:51:50.044Z,59.74
2022-08-24T21:54:18.638Z,59.84
2022-08-24T21:56:47.246Z,59.93
2022-08-24T21:59:15.974Z,60.17
2022-08-24T22:01:45.152Z,60.37
2022-08-24T22:04:14.081Z,60.56
2022-08-24T22:06:42.551Z,60.56
2022-08-24T22:09:11.752Z,60.61
2022-08-24T22:11:41.683Z,60.82
2022-08-24T22:14:10.245Z,60.87
2022-08-24T22:16:38.989Z,61.08
2022-08-24T22:19:07.628Z,60.85
2022-08-24T22:21:39.155Z,60.88
2022-08-24T22:24:08.211Z,60.79
2022-08-24T22:26:37.172Z,60.96
2022-08-24T22:29:09.429Z,60.98
2022-08-24T22:31:39.914Z,60.96
2022-08-24T22:34:11.731Z,61.18
2022-08-24T22:36:45.215Z,61.04
2022-08-24T22:39:13.932Z,61.18
2022-08-24T22:41:43.638Z,61.28
2022-08-24T22:44:21.382Z,61.14
2022-08-24T22:46:54.039Z,61.11
2022-08-24T22:49:26.189Z,61.19
2022-08-24T22:51:55.229Z,61.31
2022-08-24T22:54:25.352Z,61.28
2022-08-24T22:56:56.002Z,61.34
2022-08-24T22:59:26.870Z,61.27
2022-08-24T23:01:57.129Z,61.43
2022-08-24T23:04:28.081Z,61.33
2022-08-24T23:06:57.048Z,61.55
2022-08-24T23:09:26.483Z,61.57
2022-08-24T23:11:55.957Z,61.78
2022-08-24T23:14:24.932Z,61.72
2022-08-24T23:16:54.418Z,61.77
2022-08-24T23:19:43.187Z,61.92
2022-08-24T23:22:14.102Z,61.84
2022-08-24T23:24:44.345Z,61.87
2022-08-24T23:27:14.552Z,62.05
2022-08-24T23:29:45.389Z,62.00
2022-08-24T23:32:17.975Z,61.97
2022-08-24T23:34:47.907Z,61.95
2022-08-24T23:37:18.355Z,61.88
2022-08-24T23:39:47.044Z,61.90
2022-08-24T23:42:15.725Z,62.11
2022-08-24T23:44:44.127Z,62.11
2022-08-24T23:47:12.930Z,62.04
2022-08-24T23:49:41.570Z,62.09
2022-08-24T23:52:09.898Z,62.21
2022-08-24T23:54:54.362Z,62.47
2022-08-24T23:57:22.912Z,62.50
2022-08-24T23:59:51.277Z,62.54
